Nelsonville, Wisconsin
Current Conditions -  °F | °C
As of 9:35 AM on Thursday 23 Oct 2014 (Local Time) from KSTE Reporting Station
Overcast Overcast  
Wind Chill: 38°   Ceiling: 1800
Heat Index: 42°   Visibility: 7mi
Dew Point: 38°   Wind: 6mph
Humidity: 87%   Direction: 150°SSE
Pressure: 30.1"   Gusts: NA
Location:  44.49°N, 89.31°W
Report Text: KSTE 231435Z AUTO 15005KT 7SM OVC018 06/04 A3010 RMK AO2 T00550035
Loading
Personal Weather Stations






























Interactive Weather Map New forecast layout! Learn more

10-Day Weather Forecast

Advertisements
Track Severe Weather on mobile